Time;durP1;ratioP1;P1;durP2;ratioP2;P2;SDS_P1;SDS_P2;PMS_P1;PMS_P2;Temp;Humidity;BMP_temperature;BMP_pressure;BME280_temperature;BME280_humidity;BME280_pressure;Samples;Min_cycle;Max_cycle;Signal;HPM_P1;HPM_P2
2022/03/19 00:00:00;;;;;;;0.20;0.20;;;8.10;99.90;;;;;;6338362;22;20324;-65
2022/03/19 00:02:26;;;;;;;0.32;0.32;;;8.10;99.90;;;;;;6338418;22;20003;-65
2022/03/19 00:04:53;;;;;;;1.15;1.10;;;8.00;99.90;;;;;;6338438;22;20011;-65
2022/03/19 00:07:19;;;;;;;0.45;0.45;;;8.00;99.90;;;;;;6348453;22;20006;-66
2022/03/19 00:09:45;;;;;;;0.38;0.35;;;7.90;99.90;;;;;;6320744;22;20044;-65
2022/03/19 00:12:14;;;;;;;2.83;1.77;;;7.90;99.90;;;;;;6310821;22;20003;-65
2022/03/19 00:14:42;;;;;;;0.30;0.30;;;7.90;99.90;;;;;;6338258;22;20009;-65
2022/03/19 00:17:10;;;;;;;0.13;0.13;;;7.90;99.90;;;;;;6321058;22;20327;-65
2022/03/19 00:19:39;;;;;;;0.10;0.10;;;7.80;99.90;;;;;;6348205;22;20010;-65
2022/03/19 00:22:06;;;;;;;6.18;1.23;;;7.90;99.90;;;;;;6348120;22;20077;-65
2022/03/19 00:24:34;;;;;;;1.08;1.08;;;7.90;99.90;;;;;;6284693;22;20105;-65
2022/03/19 00:27:00;;;;;;;1.55;0.68;;;7.80;99.90;;;;;;6348410;22;20015;-65
2022/03/19 00:29:25;;;;;;;2.00;1.00;;;7.90;99.90;;;;;;6348500;22;20033;-65
2022/03/19 00:31:51;;;;;;;0.35;0.35;;;7.90;99.90;;;;;;6338037;22;20003;-65
2022/03/19 00:34:17;;;;;;;2.88;1.00;;;7.90;99.90;;;;;;6348523;22;20022;-65
2022/03/19 00:36:42;;;;;;;1.52;1.13;;;7.90;99.90;;;;;;6347998;22;20097;-65
2022/03/19 00:39:08;;;;;;;0.80;0.73;;;7.90;99.90;;;;;;6348583;22;20010;-65
2022/03/19 00:41:34;;;;;;;5.55;1.27;;;7.90;99.90;;;;;;6348150;22;20003;-65
2022/03/19 00:44:00;;;;;;;1.40;1.30;;;7.90;99.90;;;;;;6320758;22;20027;-65
2022/03/19 00:46:26;;;;;;;0.43;0.43;;;7.90;99.90;;;;;;6348185;22;20065;-65
2022/03/19 00:48:52;;;;;;;2.38;1.33;;;7.90;99.90;;;;;;6337989;22;20033;-65
2022/03/19 00:51:17;;;;;;;0.80;0.80;;;7.90;99.90;;;;;;6337844;22;20015;-64
2022/03/19 00:53:43;;;;;;;0.95;0.52;;;7.90;99.90;;;;;;6337548;22;20010;-64
2022/03/19 00:56:09;;;;;;;1.02;1.02;;;7.90;99.90;;;;;;6337974;22;20010;-65
2022/03/19 00:58:34;;;;;;;0.85;0.85;;;7.90;99.90;;;;;;6348137;22;20011;-65
2022/03/19 01:01:00;;;;;;;0.10;0.10;;;7.90;99.90;;;;;;6337416;22;20003;-65
2022/03/19 01:03:26;;;;;;;1.20;1.05;;;7.90;99.90;;;;;;6337782;22;20007;-65
2022/03/19 01:05:52;;;;;;;1.33;1.27;;;7.80;99.90;;;;;;6347973;22;20017;-65
2022/03/19 01:08:18;;;;;;;8.88;1.65;;;7.80;99.90;;;;;;6337860;22;20011;-65
2022/03/19 01:10:43;;;;;;;0.10;0.10;;;7.80;99.90;;;;;;6337847;22;20014;-64
2022/03/19 01:13:09;;;;;;;0.70;0.70;;;7.80;99.90;;;;;;6348056;22;20011;-65
2022/03/19 01:15:35;;;;;;;0.65;0.65;;;7.80;99.90;;;;;;6337239;22;20006;-64
2022/03/19 01:18:01;;;;;;;0.20;0.20;;;7.80;99.90;;;;;;6337246;22;20002;-64
2022/03/19 01:20:27;;;;;;;0.98;0.90;;;7.80;99.90;;;;;;6337387;22;20006;-64
2022/03/19 01:22:53;;;;;;;0.10;0.10;;;7.80;99.90;;;;;;6310099;22;20010;-64
2022/03/19 01:25:19;;;;;;;0.40;0.40;;;7.80;99.90;;;;;;6347951;22;20436;-64
2022/03/19 01:27:48;;;;;;;2.13;1.92;;;7.80;99.90;;;;;;6310123;22;20014;-65
2022/03/19 01:30:17;;;;;;;1.25;1.23;;;7.70;99.90;;;;;;6337715;22;20007;-64
2022/03/19 01:32:43;;;;;;;1.20;1.08;;;7.70;99.90;;;;;;6320380;22;20010;-65
2022/03/19 01:35:10;;;;;;;0.68;0.68;;;7.70;99.90;;;;;;6337896;22;20003;-65
2022/03/19 01:37:37;;;;;;;0.40;0.40;;;7.70;99.90;;;;;;6337664;22;20100;-65
2022/03/19 01:40:05;;;;;;;0.05;0.05;;;7.60;99.90;;;;;;6337672;22;20428;-65
2022/03/19 01:42:34;;;;;;;2.03;1.38;;;7.60;99.90;;;;;;6337759;22;20007;-65
2022/03/19 01:45:02;;;;;;;2.83;1.80;;;7.60;99.90;;;;;;6337540;22;20002;-65
2022/03/19 01:47:30;;;;;;;1.55;1.45;;;7.60;99.90;;;;;;6309684;22;20011;-65
2022/03/19 01:49:57;;;;;;;1.15;1.13;;;7.60;99.90;;;;;;6309811;22;20013;-64
2022/03/19 01:52:25;;;;;;;0.85;0.85;;;7.60;99.90;;;;;;6347899;22;20444;-65
2022/03/19 01:54:52;;;;;;;2.13;1.58;;;7.60;99.90;;;;;;6347259;22;20080;-65
2022/03/19 01:57:23;;;;;;;0.17;0.17;;;7.60;99.90;;;;;;6347684;22;20446;-65
2022/03/19 01:59:51;;;;;;;1.10;0.90;;;7.60;99.90;;;;;;6337524;22;20419;-64
2022/03/19 02:02:19;;;;;;;0.15;0.15;;;7.60;99.90;;;;;;6347659;22;20014;-64
2022/03/19 02:04:45;;;;;;;3.72;1.85;;;7.60;99.90;;;;;;6337409;22;20060;-64
2022/03/19 02:07:12;;;;;;;0.20;0.20;;;7.60;99.90;;;;;;6310026;22;20022;-64
2022/03/19 02:09:40;;;;;;;1.02;1.02;;;7.60;99.90;;;;;;6337259;22;19999;-64
2022/03/19 02:12:06;;;;;;;0.15;0.15;;;7.60;99.90;;;;;;6310201;22;20006;-64
2022/03/19 02:14:38;;;;;;;3.75;1.42;;;7.50;99.90;;;;;;6283543;22;20436;-64
2022/03/19 02:17:06;;;;;;;1.35;0.98;;;7.50;99.90;;;;;;6337099;22;20060;-64
2022/03/19 02:19:33;;;;;;;2.20;2.05;;;7.50;99.90;;;;;;6319744;22;20039;-65
2022/03/19 02:21:59;;;;;;;2.58;1.50;;;7.50;99.90;;;;;;6347298;22;20485;-64
2022/03/19 02:27:10;;;;;;;0.30;0.30;;;7.40;99.90;;;;;;6347556;22;20067;-65
2022/03/19 02:29:36;;;;;;;3.22;3.03;;;7.50;99.90;;;;;;6347311;22;19999;-64
2022/03/19 02:32:05;;;;;;;0.55;0.55;;;7.40;99.90;;;;;;6347235;22;20022;-65
2022/03/19 02:34:33;;;;;;;0.47;0.47;;;7.40;99.90;;;;;;6347238;22;20003;-64
2022/03/19 02:36:59;;;;;;;1.48;0.98;;;7.40;99.90;;;;;;6337216;22;20003;-65
2022/03/19 02:39:31;;;;;;;2.28;1.73;;;7.40;99.90;;;;;;6337282;22;20011;-65
2022/03/19 02:42:03;;;;;;;0.85;0.85;;;7.40;99.90;;;;;;6347136;22;20007;-65
2022/03/19 02:44:29;;;;;;;0.40;0.40;;;7.40;99.90;;;;;;6310192;22;20037;-65
2022/03/19 02:46:59;;;;;;;0.10;0.10;;;7.40;99.90;;;;;;6336944;22;20068;-64
2022/03/19 02:49:25;;;;;;;0.98;0.98;;;7.40;99.90;;;;;;6309963;22;20063;-64
2022/03/19 02:51:54;;;;;;;1.83;1.67;;;7.50;99.90;;;;;;6309446;22;20370;-64
2022/03/19 02:54:23;;;;;;;2.65;1.85;;;7.40;99.90;;;;;;6309193;22;20046;-64
2022/03/19 02:56:51;;;;;;;0.63;0.63;;;7.40;99.90;;;;;;6346915;22;20550;-65
2022/03/19 02:59:29;;;;;;;4.47;3.20;;;7.40;99.90;;;;;;6336669;22;20002;-64
2022/03/19 03:01:58;;;;;;;1.33;1.08;;;7.40;99.90;;;;;;6320366;22;20073;-64
2022/03/19 03:04:25;;;;;;;5.82;1.30;;;7.30;99.90;;;;;;6319596;22;20011;-64
2022/03/19 03:06:53;;;;;;;1.45;1.35;;;7.30;99.90;;;;;;6336563;22;20428;-64
2022/03/19 03:09:22;;;;;;;1.48;1.38;;;7.30;99.90;;;;;;6347010;22;20013;-66
2022/03/19 03:11:49;;;;;;;0.47;0.47;;;7.40;99.90;;;;;;6319491;22;20059;-64
2022/03/19 03:14:15;;;;;;;0.32;0.32;;;7.30;99.90;;;;;;6347027;22;20516;-64
2022/03/19 03:16:42;;;;;;;0.30;0.30;;;7.40;99.90;;;;;;6347053;22;20499;-64
2022/03/19 03:19:11;;;;;;;0.32;0.32;;;7.30;99.90;;;;;;6319444;22;20038;-64
2022/03/19 03:21:39;;;;;;;12.15;1.20;;;7.40;99.90;;;;;;6346711;22;20035;-64
2022/03/19 03:24:07;;;;;;;0.10;0.10;;;7.40;99.90;;;;;;6346877;22;20011;-65
2022/03/19 03:26:32;;;;;;;0.60;0.60;;;7.40;99.90;;;;;;6346905;22;20600;-64
2022/03/19 03:28:59;;;;;;;0.60;0.43;;;7.40;99.90;;;;;;6319015;22;20046;-65
2022/03/19 03:31:26;;;;;;;0.95;0.82;;;7.40;99.90;;;;;;6346938;22;20064;-64
2022/03/19 03:33:53;;;;;;;3.85;2.67;;;7.30;99.90;;;;;;6336806;22;20423;-64
2022/03/19 03:36:20;;;;;;;1.55;1.45;;;7.30;99.90;;;;;;6336965;22;20430;-64
2022/03/19 03:38:46;;;;;;;0.73;0.70;;;7.30;99.90;;;;;;6346815;22;20420;-64
2022/03/19 03:41:11;;;;;;;0.10;0.10;;;7.30;99.90;;;;;;6308935;22;20014;-63
2022/03/19 03:43:37;;;;;;;1.92;1.30;;;7.20;99.90;;;;;;6347140;22;20069;-64
2022/03/19 03:46:04;;;;;;;0.40;0.40;;;7.20;99.90;;;;;;6338427;22;20014;-64
2022/03/19 03:48:34;;;;;;;2.00;1.90;;;7.20;99.90;;;;;;6349097;22;20006;-65
2022/03/19 03:51:00;;;;;;;1.23;1.20;;;7.20;99.90;;;;;;6348675;22;20470;-64
2022/03/19 03:53:28;;;;;;;0.30;0.30;;;7.20;99.90;;;;;;6321072;22;20011;-64
2022/03/19 03:55:54;;;;;;;0.47;0.47;;;7.20;99.90;;;;;;6348670;22;20336;-64
2022/03/19 03:58:22;;;;;;;1.90;1.40;;;7.10;99.90;;;;;;6348827;22;20030;-65
2022/03/19 04:00:51;;;;;;;0.30;0.30;;;7.10;99.90;;;;;;6348578;22;20007;-65
2022/03/19 04:03:17;;;;;;;28.58;2.75;;;7.20;99.90;;;;;;6268897;22;20450;-65
2022/03/19 04:05:43;;;;;;;2.13;1.77;;;7.10;99.90;;;;;;6310999;22;20003;-65
2022/03/19 04:08:09;;;;;;;0.43;0.43;;;7.10;99.90;;;;;;6338240;22;20011;-65
2022/03/19 04:10:35;;;;;;;0.28;0.28;;;7.10;99.90;;;;;;6348353;22;20097;-65
2022/03/19 04:13:01;;;;;;;0.63;0.55;;;6.90;99.90;;;;;;6338348;22;20327;-65
2022/03/19 04:15:27;;;;;;;1.52;1.42;;;6.80;99.90;;;;;;6348557;22;20036;-65
2022/03/19 04:17:53;;;;;;;1.02;0.98;;;6.60;99.90;;;;;;6348451;22;20010;-65
2022/03/19 04:20:19;;;;;;;1.73;1.65;;;6.60;99.90;;;;;;6338301;22;19999;-65
2022/03/19 04:22:47;;;;;;;0.25;0.25;;;6.60;99.90;;;;;;6348373;22;20018;-65
2022/03/19 04:25:21;;;;;;;1.58;1.48;;;6.50;99.90;;;;;;6311052;22;20026;-65
2022/03/19 04:27:50;;;;;;;1.90;1.80;;;6.40;99.90;;;;;;6338265;22;20007;-65
2022/03/19 04:30:19;;;;;;;1.23;1.13;;;6.40;99.90;;;;;;6348120;22;20024;-65
2022/03/19 04:32:48;;;;;;;1.55;1.45;;;6.40;99.90;;;;;;6338299;22;20018;-65
2022/03/19 04:38:08;;;;;;;0.40;0.40;;;6.30;99.90;;;;;;6314972;22;20369;-65
2022/03/19 04:40:34;;;;;;;0.30;0.30;;;6.30;99.90;;;;;;6348114;22;20021;-65
2022/03/19 04:43:00;;;;;;;0.20;0.20;;;6.20;99.90;;;;;;6337766;22;20006;-65
2022/03/19 04:45:26;;;;;;;0.75;0.75;;;6.20;99.90;;;;;;6320645;22;20011;-65
2022/03/19 04:47:53;;;;;;;0.43;0.43;;;6.30;99.90;;;;;;6338060;22;20010;-65
2022/03/19 04:50:19;;;;;;;1.00;0.90;;;6.20;99.90;;;;;;6348106;22;20538;-65
2022/03/19 04:52:47;;;;;;;1.13;0.95;;;6.20;99.90;;;;;;6309930;22;20056;-65
2022/03/19 04:55:13;;;;;;;1.65;1.45;;;6.20;99.90;;;;;;6337221;22;20007;-65
2022/03/19 04:57:39;;;;;;;0.30;0.30;;;6.20;99.90;;;;;;6337958;22;20032;-64
2022/03/19 05:00:10;;;;;;;0.55;0.55;;;6.30;99.90;;;;;;6337751;22;20007;-64
2022/03/19 05:02:36;;;;;;;0.85;0.82;;;6.20;99.90;;;;;;6309983;22;20014;-64
2022/03/19 05:05:05;;;;;;;0.10;0.10;;;6.20;99.90;;;;;;6337479;22;20026;-65
2022/03/19 05:07:35;;;;;;;0.68;0.32;;;6.10;99.90;;;;;;6342703;22;20021;-65
2022/03/19 05:12:48;;;;;;;0.45;0.45;;;6.20;99.90;;;;;;6337923;22;20477;-65
2022/03/19 05:15:15;;;;;;;1.27;1.13;;;6.20;99.90;;;;;;6337705;22;20015;-64
2022/03/19 05:17:43;;;;;;;0.10;0.10;;;6.10;99.90;;;;;;6337762;22;20045;-64
2022/03/19 05:20:10;;;;;;;0.52;0.52;;;6.10;99.90;;;;;;6336926;22;20006;-64
2022/03/19 05:22:37;;;;;;;0.60;0.55;;;6.00;99.90;;;;;;6347732;22;20007;-64
2022/03/19 05:25:05;;;;;;;1.52;1.42;;;6.00;99.90;;;;;;6347555;22;20052;-64
2022/03/19 05:27:31;;;;;;;1.08;1.08;;;6.00;99.90;;;;;;6337661;22;20010;-65
2022/03/19 05:29:57;;;;;;;0.40;0.40;;;5.90;99.90;;;;;;6319925;22;20038;-65
2022/03/19 05:32:23;;;;;;;1.63;1.52;;;5.90;99.90;;;;;;6337403;22;20006;-65
2022/03/19 05:34:49;;;;;;;0.47;0.47;;;5.90;99.90;;;;;;6309986;22;20011;-65
2022/03/19 05:37:17;;;;;;;1.27;1.23;;;6.00;99.90;;;;;;6337449;22;20416;-64
2022/03/19 05:39:43;;;;;;;0.73;0.73;;;6.00;99.90;;;;;;6347765;22;20081;-64
2022/03/19 05:42:11;;;;;;;1.40;1.30;;;6.10;99.90;;;;;;6337297;22;20007;-65
2022/03/19 05:44:38;;;;;;;1.55;1.45;;;6.10;99.90;;;;;;6337466;22;20343;-65
2022/03/19 05:47:04;;;;;;;0.57;0.57;;;6.10;99.90;;;;;;6309613;22;20007;-65
2022/03/19 05:49:30;;;;;;;0.10;0.10;;;6.00;99.90;;;;;;6337664;22;20038;-64
2022/03/19 05:51:57;;;;;;;0.30;0.30;;;6.10;99.90;;;;;;6319196;22;20030;-64
2022/03/19 05:54:25;;;;;;;0.10;0.10;;;6.20;99.90;;;;;;6337118;22;20010;-64
2022/03/19 05:56:52;;;;;;;0.30;0.30;;;6.40;99.90;;;;;;6309348;22;20081;-64
2022/03/19 05:59:19;;;;;;;1.42;1.33;;;6.50;99.90;;;;;;6347504;22;20013;-65
2022/03/19 06:01:45;;;;;;;0.20;0.20;;;6.60;99.90;;;;;;6337308;22;20115;-65
2022/03/19 06:04:11;;;;;;;0.32;0.32;;;6.60;99.90;;;;;;6335681;22;20003;-65
2022/03/19 06:06:37;;;;;;;0.10;0.10;;;6.60;99.90;;;;;;6346131;22;20030;-66
2022/03/19 06:09:03;;;;;;;0.00;0.00;;;6.60;99.90;;;;;;6347353;22;20007;-66
2022/03/19 06:11:30;;;;;;;0.00;0.00;;;6.60;99.90;;;;;;6319673;22;20514;-62
2022/03/19 06:13:56;;;;;;;0.30;0.30;;;6.70;99.90;;;;;;6336949;22;20447;-62
2022/03/19 06:16:22;;;;;;;0.10;0.10;;;6.70;99.90;;;;;;6347101;22;20002;-63
2022/03/19 06:18:50;;;;;;;0.10;0.10;;;6.60;99.90;;;;;;6337219;22;20059;-63
2022/03/19 06:21:17;;;;;;;0.00;0.00;;;6.70;99.90;;;;;;6346719;22;20061;-63
2022/03/19 06:23:46;;;;;;;0.10;0.10;;;6.70;99.90;;;;;;6309613;22;20332;-62
2022/03/19 06:26:13;;;;;;;0.50;0.50;;;6.80;99.90;;;;;;6336966;22;20041;-62
2022/03/19 06:28:40;;;;;;;0.65;0.65;;;6.80;99.90;;;;;;6336838;22;20436;-62
2022/03/19 06:31:05;;;;;;;0.35;0.35;;;6.80;99.90;;;;;;6336878;22;20056;-62
2022/03/19 06:33:32;;;;;;;0.50;0.50;;;6.80;99.90;;;;;;6336916;22;20007;-63
2022/03/19 06:38:42;;;;;;;3.15;1.35;;;6.90;99.90;;;;;;6346802;22;19999;-59
2022/03/19 06:41:11;;;;;;;0.10;0.10;;;7.00;99.90;;;;;;6309477;22;20010;-57
2022/03/19 06:43:37;;;;;;;0.20;0.20;;;7.10;99.90;;;;;;6337000;22;20003;-61
2022/03/19 06:46:03;;;;;;;0.22;0.22;;;7.20;99.90;;;;;;6346171;22;20017;-63
2022/03/19 06:48:29;;;;;;;0.57;0.57;;;7.20;99.90;;;;;;6336897;22;20011;-61
2022/03/19 06:50:55;;;;;;;1.20;1.17;;;7.20;99.90;;;;;;6337049;22;20046;-65
2022/03/19 17:19:37;;;;;;;0.00;0.00;;;11.50;53.50;;;;;;6347225;22;20037;-71
2022/03/19 17:22:06;;;;;;;0.00;0.00;;;11.30;54.10;;;;;;6347916;22;20006;-66
2022/03/19 17:24:33;;;;;;;0.00;0.00;;;11.40;54.40;;;;;;6337353;22;20007;-67
2022/03/19 17:26:59;;;;;;;0.10;0.10;;;10.80;55.30;;;;;;6320030;22;20461;-66
2022/03/19 17:29:25;;;;;;;0.13;0.13;;;10.50;57.00;;;;;;6319854;22;20060;-65
2022/03/19 17:31:51;;;;;;;0.10;0.10;;;10.50;59.60;;;;;;6348761;22;20007;-66
2022/03/19 17:34:17;;;;;;;0.08;0.08;;;10.00;61.90;;;;;;6320582;22;19999;-65
2022/03/19 17:36:43;;;;;;;0.00;0.00;;;9.80;64.20;;;;;;6310953;22;20022;-65
2022/03/19 17:39:09;;;;;;;0.10;0.10;;;9.80;65.70;;;;;;6348061;22;20332;-65
2022/03/19 17:41:35;;;;;;;0.40;0.40;;;9.60;66.50;;;;;;6348331;22;20011;-65
2022/03/19 17:44:01;;;;;;;0.00;0.00;;;9.60;67.00;;;;;;6348595;22;20060;-64
2022/03/19 17:46:29;;;;;;;0.03;0.03;;;9.30;68.30;;;;;;6347907;22;20006;-66
2022/03/19 17:48:57;;;;;;;0.45;0.45;;;9.30;69.80;;;;;;6311167;22;20010;-65
2022/03/19 17:51:24;;;;;;;0.00;0.00;;;9.30;71.20;;;;;;6348365;22;20558;-69
2022/03/19 17:53:51;;;;;;;0.30;0.30;;;9.30;72.30;;;;;;6347553;22;20010;-64
2022/03/19 17:56:16;;;;;;;0.10;0.10;;;9.10;73.00;;;;;;6347940;22;20007;-66
2022/03/19 17:58:42;;;;;;;0.55;0.55;;;9.10;73.70;;;;;;6310299;22;20049;-66
2022/03/19 18:01:08;;;;;;;0.10;0.10;;;9.00;74.20;;;;;;6320856;22;20011;-66
2022/03/19 18:03:34;;;;;;;0.22;0.22;;;8.90;75.10;;;;;;6347520;22;20006;-70
2022/03/19 18:05:59;;;;;;;0.35;0.35;;;8.90;75.90;;;;;;6348086;22;20443;-69
2022/03/19 18:08:25;;;;;;;0.15;0.15;;;8.90;76.90;;;;;;6348113;22;20002;-68
2022/03/19 18:10:51;;;;;;;0.40;0.40;;;8.70;77.70;;;;;;6348102;22;20078;-67
2022/03/19 18:13:17;;;;;;;0.88;0.88;;;8.50;79.00;;;;;;6320366;22;20089;-67
2022/03/19 18:15:42;;;;;;;0.10;0.10;;;8.50;80.00;;;;;;6348315;22;20041;-67
2022/03/19 18:18:08;;;;;;;0.25;0.25;;;8.30;80.90;;;;;;6347618;22;20018;-67
2022/03/19 18:20:35;;;;;;;0.00;0.00;;;8.20;81.80;;;;;;6310304;22;20071;-68
2022/03/19 18:23:01;;;;;;;0.10;0.10;;;8.20;82.50;;;;;;6348179;22;20003;-68
2022/03/19 18:25:27;;;;;;;0.60;0.47;;;8.20;83.30;;;;;;6310233;22;20458;-66
2022/03/19 18:27:53;;;;;;;0.10;0.10;;;8.00;84.00;;;;;;6348014;22;20440;-67
2022/03/19 18:30:23;;;;;;;0.25;0.25;;;8.00;84.70;;;;;;6347225;22;20007;-68
2022/03/19 18:32:50;;;;;;;2.22;1.30;;;8.00;85.60;;;;;;6347030;22;20034;-76
2022/03/19 18:35:16;;;;;;;0.30;0.30;;;8.10;86.10;;;;;;6345317;22;19999;-66
2022/03/19 18:37:42;;;;;;;0.57;0.57;;;8.10;86.50;;;;;;6318744;22;20459;-67
2022/03/19 18:40:09;;;;;;;0.35;0.35;;;8.20;86.90;;;;;;6347388;22;20003;-68
2022/03/19 18:42:35;;;;;;;0.40;0.40;;;8.20;87.10;;;;;;6347210;22;20059;-72
2022/03/19 18:45:06;;;;;;;0.32;0.32;;;8.20;87.60;;;;;;6320064;22;20041;-68
2022/03/19 18:47:32;;;;;;;0.85;0.85;;;8.20;88.00;;;;;;6347073;22;20013;-71
2022/03/19 18:49:58;;;;;;;0.10;0.10;;;8.20;88.70;;;;;;6319943;22;20026;-68
2022/03/19 18:52:24;;;;;;;0.10;0.10;;;8.20;89.20;;;;;;6309506;22;20025;-71
2022/03/19 18:54:54;;;;;;;1.23;1.10;;;8.20;89.90;;;;;;6319875;22;19998;-65
2022/03/19 18:57:22;;;;;;;0.57;0.57;;;8.20;90.20;;;;;;6346915;22;20007;-63
2022/03/19 19:00:33;;;;;;;0.40;0.38;;;8.10;90.50;;;;;;5065549;28;20440;-65
2022/03/19 19:02:59;;;;;;;0.35;0.35;;;8.30;90.70;;;;;;5045969;28;20488;-74
2022/03/19 19:05:25;;;;;;;0.73;0.73;;;8.10;91.20;;;;;;5016048;28;20043;-65
2022/03/19 19:07:51;;;;;;;0.88;0.88;;;8.10;91.80;;;;;;5025880;28;20053;-67
2022/03/19 19:10:17;;;;;;;1.75;1.65;;;8.00;91.60;;;;;;5026835;28;20076;-65
2022/03/19 19:12:43;;;;;;;1.38;1.33;;;7.90;92.20;;;;;;5026648;28;20387;-65
2022/03/19 19:15:09;;;;;;;0.73;0.70;;;7.90;92.50;;;;;;5026905;28;20033;-66
2022/03/19 19:17:37;;;;;;;0.32;0.30;;;7.90;92.70;;;;;;5026818;28;20046;-66
2022/03/19 19:20:07;;;;;;;0.10;0.10;;;8.00;92.90;;;;;;5026928;28;20464;-65
2022/03/19 19:22:32;;;;;;;0.63;0.63;;;8.00;93.10;;;;;;5026755;28;20060;-67
2022/03/19 19:25:00;;;;;;;0.20;0.20;;;7.90;93.30;;;;;;5027332;28;20682;-66
2022/03/19 19:27:26;;;;;;;0.28;0.28;;;7.90;93.20;;;;;;5022052;28;20030;-66
2022/03/19 19:29:52;;;;;;;1.05;0.95;;;8.00;93.40;;;;;;5005989;28;20034;-66
2022/03/19 19:32:19;;;;;;;0.10;0.10;;;7.90;93.80;;;;;;5006758;28;20083;-66
2022/03/19 19:34:46;;;;;;;0.30;0.30;;;7.80;94.10;;;;;;5022006;28;20129;-66
2022/03/19 19:37:12;;;;;;;0.32;0.32;;;7.80;94.20;;;;;;5021662;28;20030;-66
2022/03/19 19:39:38;;;;;;;0.98;0.85;;;7.80;94.40;;;;;;5021813;28;20034;-67
2022/03/19 19:42:04;;;;;;;1.33;1.27;;;7.70;94.60;;;;;;5006627;28;20026;-67
2022/03/19 19:44:31;;;;;;;0.50;0.50;;;7.70;94.80;;;;;;5005628;28;20038;-66
2022/03/19 19:46:59;;;;;;;3.83;2.67;;;7.70;94.80;;;;;;5006688;28;20441;-66
2022/03/19 19:49:25;;;;;;;0.75;0.75;;;7.70;94.90;;;;;;5021622;28;20390;-66
2022/03/19 19:51:52;;;;;;;0.80;0.75;;;7.70;95.10;;;;;;5006305;28;20030;-66
2022/03/19 19:54:19;;;;;;;0.70;0.70;;;7.60;95.60;;;;;;5006687;28;20026;-66
2022/03/19 19:59:31;;;;;;;3.95;1.60;;;7.50;95.80;;;;;;5019244;28;20073;-66
2022/03/19 20:01:56;;;;;;;0.38;0.38;;;7.50;95.80;;;;;;5006085;28;20030;-66
2022/03/19 20:04:22;;;;;;;1.92;1.83;;;7.50;96.00;;;;;;5006534;28;20042;-67
2022/03/19 20:09:32;;;;;;;0.80;0.80;;;7.30;96.80;;;;;;5005276;28;20034;-67
2022/03/19 20:11:58;;;;;;;1.55;1.05;;;7.30;97.00;;;;;;4992888;28;20164;-67
2022/03/19 20:14:27;;;;;;;3.03;2.72;;;7.30;97.30;;;;;;5008411;28;20105;-66
2022/03/19 20:16:53;;;;;;;0.43;0.43;;;7.20;97.30;;;;;;4992400;28;20050;-67
2022/03/19 20:19:18;;;;;;;0.80;0.80;;;7.20;97.40;;;;;;4992681;28;20062;-66
2022/03/19 20:21:45;;;;;;;3.67;3.33;;;7.30;97.50;;;;;;4992641;28;20623;-66
2022/03/19 20:24:11;;;;;;;0.57;0.57;;;7.30;97.60;;;;;;4993192;28;20081;-66
2022/03/19 20:26:38;;;;;;;0.40;0.40;;;7.40;97.70;;;;;;4996920;28;20128;-65
2022/03/19 20:29:04;;;;;;;0.20;0.20;;;7.40;97.70;;;;;;5027400;28;20030;-66
2022/03/19 20:31:30;;;;;;;4.30;1.20;;;7.40;97.70;;;;;;5027047;28;20477;-66
2022/03/19 20:33:56;;;;;;;2.15;1.95;;;7.50;97.60;;;;;;5012534;28;20103;-66
2022/03/19 20:36:22;;;;;;;0.82;0.82;;;7.50;97.60;;;;;;5012341;28;20040;-66
2022/03/19 20:38:48;;;;;;;1.55;1.45;;;7.50;97.80;;;;;;5012262;28;20037;-66
2022/03/19 20:41:14;;;;;;;1.25;1.20;;;7.50;97.90;;;;;;5012330;28;20041;-66
2022/03/19 20:43:40;;;;;;;1.13;1.10;;;7.60;97.50;;;;;;5027193;28;20061;-66
2022/03/19 20:46:06;;;;;;;1.77;1.38;;;7.50;97.30;;;;;;5012561;28;20107;-66
2022/03/19 20:48:32;;;;;;;1.70;1.60;;;7.60;97.70;;;;;;5012123;28;20018;-66
2022/03/19 20:50:58;;;;;;;1.50;1.40;;;7.60;97.80;;;;;;5012118;28;20038;-66
2022/03/19 20:53:24;;;;;;;2.50;1.23;;;7.60;97.50;;;;;;5026906;28;20473;-66
2022/03/19 20:55:52;;;;;;;0.50;0.50;;;7.70;97.60;;;;;;5011084;28;20037;-66
2022/03/19 20:58:18;;;;;;;1.70;1.60;;;7.60;97.40;;;;;;5026125;28;20539;-66
2022/03/19 21:00:44;;;;;;;1.23;1.17;;;7.60;97.00;;;;;;5012500;28;20038;-66
2022/03/19 21:03:09;;;;;;;2.65;2.40;;;7.50;97.50;;;;;;5011730;28;20384;-66
2022/03/19 21:05:39;;;;;;;0.40;0.40;;;7.60;97.40;;;;;;5012132;28;20127;-66
2022/03/19 21:08:07;;;;;;;3.60;3.28;;;7.60;97.20;;;;;;5026145;28;20026;-66
2022/03/19 21:10:35;;;;;;;0.20;0.20;;;7.60;97.30;;;;;;5010396;28;20026;-66
2022/03/19 21:13:07;;;;;;;13.02;3.28;;;7.70;97.00;;;;;;5011449;28;20037;-67
2022/03/19 21:15:34;;;;;;;1.98;1.85;;;7.70;97.10;;;;;;5010648;28;20419;-67
2022/03/19 21:18:00;;;;;;;1.00;0.90;;;7.70;96.80;;;;;;5010390;28;20030;-66
2022/03/19 21:20:32;;;;;;;1.30;1.20;;;7.70;97.00;;;;;;5011754;28;20033;-66
2022/03/19 21:22:59;;;;;;;3.83;3.20;;;7.70;96.60;;;;;;5009439;28;20022;-66
2022/03/19 21:25:25;;;;;;;7.47;2.47;;;7.70;96.60;;;;;;5011223;28;20164;-66
2022/03/19 21:27:51;;;;;;;0.17;0.17;;;7.70;96.50;;;;;;5009952;28;20113;-65
2022/03/19 21:30:25;;;;;;;0.65;0.65;;;7.60;96.40;;;;;;5009950;28;20469;-66
2022/03/19 21:32:51;;;;;;;0.10;0.10;;;7.60;96.40;;;;;;5024564;28;20330;-66
2022/03/19 21:35:19;;;;;;;1.23;1.23;;;7.60;96.40;;;;;;5025021;28;20040;-66
2022/03/19 21:37:46;;;;;;;0.65;0.65;;;7.60;95.80;;;;;;5024602;28;20041;-66
2022/03/19 21:42:59;;;;;;;1.08;1.08;;;7.70;94.00;;;;;;5011148;28;20689;-65
2022/03/19 21:45:26;;;;;;;3.15;1.23;;;7.70;93.30;;;;;;5026178;28;20041;-65
2022/03/19 21:47:53;;;;;;;3.70;3.38;;;7.70;93.10;;;;;;5010360;28;20064;-65
2022/03/19 21:50:20;;;;;;;0.47;0.47;;;7.70;92.60;;;;;;5011167;28;20065;-65
2022/03/19 21:52:47;;;;;;;0.28;0.28;;;7.70;92.50;;;;;;5026167;28;20060;-65
2022/03/19 21:55:13;;;;;;;0.40;0.40;;;7.80;92.30;;;;;;5011355;28;20185;-66
2022/03/19 21:57:40;;;;;;;0.32;0.25;;;7.70;91.70;;;;;;5010926;28;20044;-66
2022/03/19 22:00:11;;;;;;;0.20;0.20;;;7.70;91.70;;;;;;5026034;28;20097;-66
2022/03/19 22:02:38;;;;;;;0.52;0.52;;;7.70;91.50;;;;;;5010886;28;20053;-66
2022/03/19 22:05:06;;;;;;;1.55;1.20;;;7.70;91.40;;;;;;5025953;28;20048;-66
2022/03/19 22:07:32;;;;;;;0.10;0.10;;;7.60;91.40;;;;;;5026246;28;20033;-66
2022/03/19 22:09:58;;;;;;;0.65;0.65;;;7.60;91.30;;;;;;5010850;28;20021;-66
2022/03/19 22:12:24;;;;;;;0.15;0.15;;;7.60;91.10;;;;;;5025779;28;20022;-66
2022/03/19 22:14:49;;;;;;;0.93;0.93;;;7.50;91.20;;;;;;5010822;28;20022;-65
2022/03/19 22:17:15;;;;;;;0.98;0.90;;;7.50;90.90;;;;;;5010582;28;20396;-66
2022/03/19 22:22:26;;;;;;;0.55;0.52;;;7.40;90.90;;;;;;5010541;28;20448;-65
2022/03/19 22:24:55;;;;;;;3.53;1.10;;;7.40;90.70;;;;;;5010680;28;20056;-65
2022/03/19 22:27:23;;;;;;;0.15;0.15;;;7.30;90.80;;;;;;5025667;28;20121;-66
2022/03/19 22:29:53;;;;;;;0.63;0.63;;;7.30;90.70;;;;;;5009207;28;20022;-65
2022/03/19 22:32:22;;;;;;;0.85;0.85;;;7.30;90.70;;;;;;5010503;28;20025;-66
2022/03/19 22:34:48;;;;;;;0.95;0.95;;;7.20;90.60;;;;;;5009066;28;20366;-66
2022/03/19 22:37:14;;;;;;;0.20;0.20;;;7.20;90.80;;;;;;5009461;28;20022;-66
2022/03/19 22:39:40;;;;;;;0.20;0.20;;;7.20;90.50;;;;;;5009186;28;20083;-65
2022/03/19 22:42:06;;;;;;;0.22;0.22;;;7.20;90.50;;;;;;5010146;28;20096;-65
2022/03/19 22:44:31;;;;;;;7.22;1.35;;;7.10;90.60;;;;;;5010142;28;20059;-65
2022/03/19 22:46:57;;;;;;;0.40;0.40;;;7.10;90.70;;;;;;5010421;28;20033;-65
2022/03/19 22:49:24;;;;;;;0.50;0.50;;;7.00;90.60;;;;;;5010349;28;20022;-65
2022/03/19 22:51:50;;;;;;;0.82;0.82;;;7.10;90.50;;;;;;5008686;28;20513;-65
2022/03/19 22:54:16;;;;;;;2.53;2.33;;;7.10;90.40;;;;;;5010539;28;20409;-65
2022/03/19 22:56:42;;;;;;;0.20;0.20;;;7.10;90.30;;;;;;5010507;28;20104;-65
2022/03/19 22:59:08;;;;;;;0.95;0.90;;;7.00;90.30;;;;;;5010248;28;20037;-67
2022/03/19 23:01:34;;;;;;;1.90;1.80;;;7.00;90.20;;;;;;5008857;28;20388;-66
2022/03/19 23:04:00;;;;;;;0.35;0.35;;;7.00;90.30;;;;;;5010340;28;20034;-65
2022/03/19 23:06:26;;;;;;;0.70;0.70;;;6.90;90.20;;;;;;5008852;28;20416;-65
2022/03/19 23:09:08;;;;;;;1.00;0.98;;;6.90;90.30;;;;;;5008882;28;20037;-66
2022/03/19 23:11:39;;;;;;;0.10;0.10;;;6.80;90.20;;;;;;5008768;28;20064;-66
2022/03/19 23:14:12;;;;;;;1.30;1.20;;;6.80;90.10;;;;;;5008907;28;20409;-66
2022/03/19 23:16:39;;;;;;;0.10;0.10;;;6.80;90.00;;;;;;5010163;28;20084;-65
2022/03/19 23:19:06;;;;;;;0.73;0.73;;;6.80;89.70;;;;;;5009838;28;20234;-65
2022/03/19 23:21:36;;;;;;;1.38;1.33;;;6.70;90.10;;;;;;5008599;28;20026;-65
2022/03/19 23:24:04;;;;;;;0.80;0.80;;;6.70;89.80;;;;;;5008767;28;20485;-65
2022/03/19 23:26:31;;;;;;;2.17;1.45;;;6.70;89.80;;;;;;5008680;28;20073;-66
2022/03/19 23:28:57;;;;;;;1.75;1.65;;;6.60;89.40;;;;;;5009891;28;20061;-66
2022/03/19 23:31:24;;;;;;;1.30;1.20;;;6.60;89.70;;;;;;5009871;28;20034;-66
2022/03/19 23:33:50;;;;;;;1.33;1.23;;;6.60;89.50;;;;;;5024785;28;20022;-67
2022/03/19 23:36:16;;;;;;;2.10;2.00;;;6.60;89.00;;;;;;5025273;28;20034;-66
2022/03/19 23:38:43;;;;;;;1.02;1.02;;;6.60;89.30;;;;;;5010399;28;20381;-66
2022/03/19 23:41:10;;;;;;;2.95;1.95;;;6.60;89.50;;;;;;5010031;28;20081;-66
2022/03/19 23:43:37;;;;;;;0.20;0.20;;;6.60;89.30;;;;;;5025024;28;20088;-66